sensor_id;sensor_type;location;lat;lon;timestamp;P1;durP1;ratioP1;P2;durP2;ratioP2
48993;SDS011;34804;49.214;12.276;2023-09-12T00:00:51;15.80;;;13.18;;
48993;SDS011;34804;49.214;12.276;2023-09-12T00:03:19;15.20;;;11.88;;
48993;SDS011;34804;49.214;12.276;2023-09-12T00:05:51;14.77;;;12.45;;
48993;SDS011;34804;49.214;12.276;2023-09-12T00:08:19;18.30;;;13.82;;
48993;SDS011;34804;49.214;12.276;2023-09-12T00:10:45;21.98;;;16.85;;
48993;SDS011;34804;49.214;12.276;2023-09-12T00:13:12;20.98;;;16.42;;
48993;SDS011;34804;49.214;12.276;2023-09-12T00:15:39;18.83;;;14.85;;
48993;SDS011;34804;49.214;12.276;2023-09-12T00:18:06;17.73;;;14.93;;
48993;SDS011;34804;49.214;12.276;2023-09-12T00:20:33;18.60;;;14.40;;
48993;SDS011;34804;49.214;12.276;2023-09-12T00:23:00;16.33;;;12.73;;
48993;SDS011;34804;49.214;12.276;2023-09-12T00:25:28;20.38;;;14.20;;
48993;SDS011;34804;49.214;12.276;2023-09-12T00:27:54;19.60;;;13.30;;
48993;SDS011;34804;49.214;12.276;2023-09-12T00:30:21;15.43;;;12.52;;
48993;SDS011;34804;49.214;12.276;2023-09-12T00:32:48;20.58;;;14.23;;
48993;SDS011;34804;49.214;12.276;2023-09-12T00:35:15;18.98;;;14.70;;
48993;SDS011;34804;49.214;12.276;2023-09-12T00:37:42;19.48;;;14.00;;
48993;SDS011;34804;49.214;12.276;2023-09-12T00:40:08;20.63;;;14.15;;
48993;SDS011;34804;49.214;12.276;2023-09-12T00:42:36;17.60;;;13.57;;
48993;SDS011;34804;49.214;12.276;2023-09-12T00:45:02;19.17;;;13.10;;
48993;SDS011;34804;49.214;12.276;2023-09-12T00:47:30;16.58;;;13.15;;
48993;SDS011;34804;49.214;12.276;2023-09-12T00:49:58;16.92;;;13.77;;
48993;SDS011;34804;49.214;12.276;2023-09-12T00:52:27;15.73;;;12.40;;
48993;SDS011;34804;49.214;12.276;2023-09-12T00:54:55;16.63;;;13.05;;
48993;SDS011;34804;49.214;12.276;2023-09-12T00:57:22;15.55;;;12.38;;
48993;SDS011;34804;49.214;12.276;2023-09-12T00:59:50;16.15;;;13.63;;
48993;SDS011;34804;49.214;12.276;2023-09-12T01:02:18;14.40;;;11.63;;
48993;SDS011;34804;49.214;12.276;2023-09-12T01:04:46;16.00;;;12.70;;
48993;SDS011;34804;49.214;12.276;2023-09-12T01:07:13;16.13;;;13.25;;
48993;SDS011;34804;49.214;12.276;2023-09-12T01:09:40;16.52;;;12.27;;
48993;SDS011;34804;49.214;12.276;2023-09-12T01:12:08;16.30;;;13.30;;
48993;SDS011;34804;49.214;12.276;2023-09-12T01:14:35;15.75;;;12.23;;
48993;SDS011;34804;49.214;12.276;2023-09-12T01:17:02;15.68;;;11.70;;
48993;SDS011;34804;49.214;12.276;2023-09-12T01:19:29;14.80;;;12.15;;
48993;SDS011;34804;49.214;12.276;2023-09-12T01:27:21;15.23;;;12.95;;
48993;SDS011;34804;49.214;12.276;2023-09-12T01:29:53;15.68;;;13.18;;
48993;SDS011;34804;49.214;12.276;2023-09-12T01:32:23;23.17;;;16.92;;
48993;SDS011;34804;49.214;12.276;2023-09-12T01:34:50;24.20;;;18.58;;
48993;SDS011;34804;49.214;12.276;2023-09-12T01:37:17;25.35;;;18.38;;
48993;SDS011;34804;49.214;12.276;2023-09-12T01:39:44;22.92;;;17.95;;
48993;SDS011;34804;49.214;12.276;2023-09-12T01:42:18;40.00;;;15.35;;
48993;SDS011;34804;49.214;12.276;2023-09-12T01:44:49;17.15;;;14.02;;
48993;SDS011;34804;49.214;12.276;2023-09-12T01:47:17;17.10;;;13.77;;
48993;SDS011;34804;49.214;12.276;2023-09-12T01:49:47;17.63;;;14.77;;
48993;SDS011;34804;49.214;12.276;2023-09-12T01:52:16;21.15;;;15.68;;
48993;SDS011;34804;49.214;12.276;2023-09-12T01:54:43;16.08;;;14.38;;
48993;SDS011;34804;49.214;12.276;2023-09-12T01:57:11;14.77;;;12.68;;
48993;SDS011;34804;49.214;12.276;2023-09-12T01:59:39;16.98;;;12.18;;
48993;SDS011;34804;49.214;12.276;2023-09-12T02:02:06;13.65;;;12.02;;
48993;SDS011;34804;49.214;12.276;2023-09-12T02:04:33;13.30;;;11.38;;
48993;SDS011;34804;49.214;12.276;2023-09-12T02:07:00;15.00;;;11.52;;
48993;SDS011;34804;49.214;12.276;2023-09-12T02:09:27;17.50;;;13.20;;
48993;SDS011;34804;49.214;12.276;2023-09-12T02:11:54;18.25;;;13.40;;
48993;SDS011;34804;49.214;12.276;2023-09-12T02:14:21;17.05;;;12.88;;
48993;SDS011;34804;49.214;12.276;2023-09-12T02:16:48;17.95;;;12.40;;
48993;SDS011;34804;49.214;12.276;2023-09-12T02:19:15;14.48;;;11.75;;
48993;SDS011;34804;49.214;12.276;2023-09-12T02:21:42;19.60;;;15.40;;
48993;SDS011;34804;49.214;12.276;2023-09-12T02:24:09;19.42;;;15.77;;
48993;SDS011;34804;49.214;12.276;2023-09-12T02:26:36;21.15;;;16.33;;
48993;SDS011;34804;49.214;12.276;2023-09-12T02:29:03;20.08;;;15.80;;
48993;SDS011;34804;49.214;12.276;2023-09-12T02:31:32;20.48;;;16.38;;
48993;SDS011;34804;49.214;12.276;2023-09-12T02:33:59;19.65;;;16.35;;
48993;SDS011;34804;49.214;12.276;2023-09-12T02:36:26;20.17;;;16.35;;
48993;SDS011;34804;49.214;12.276;2023-09-12T02:38:53;31.20;;;13.48;;
48993;SDS011;34804;49.214;12.276;2023-09-12T02:41:19;20.77;;;17.83;;
48993;SDS011;34804;49.214;12.276;2023-09-12T02:43:46;28.13;;;19.90;;
48993;SDS011;34804;49.214;12.276;2023-09-12T02:46:13;20.58;;;17.75;;
48993;SDS011;34804;49.214;12.276;2023-09-12T02:48:40;19.55;;;17.25;;
48993;SDS011;34804;49.214;12.276;2023-09-12T02:51:07;20.33;;;16.92;;
48993;SDS011;34804;49.214;12.276;2023-09-12T02:53:34;16.15;;;14.32;;
48993;SDS011;34804;49.214;12.276;2023-09-12T02:56:01;14.40;;;12.50;;
48993;SDS011;34804;49.214;12.276;2023-09-12T02:58:28;15.65;;;12.50;;
48993;SDS011;34804;49.214;12.276;2023-09-12T03:00:55;18.85;;;12.00;;
48993;SDS011;34804;49.214;12.276;2023-09-12T03:03:23;17.40;;;12.70;;
48993;SDS011;34804;49.214;12.276;2023-09-12T03:05:59;16.75;;;13.95;;
48993;SDS011;34804;49.214;12.276;2023-09-12T03:08:28;16.95;;;13.48;;
48993;SDS011;34804;49.214;12.276;2023-09-12T03:10:55;16.13;;;13.07;;
48993;SDS011;34804;49.214;12.276;2023-09-12T03:13:23;15.98;;;12.40;;
48993;SDS011;34804;49.214;12.276;2023-09-12T03:15:51;15.68;;;12.80;;
48993;SDS011;34804;49.214;12.276;2023-09-12T03:18:19;14.38;;;12.15;;
48993;SDS011;34804;49.214;12.276;2023-09-12T03:20:46;15.60;;;13.07;;
48993;SDS011;34804;49.214;12.276;2023-09-12T03:23:13;19.55;;;14.23;;
48993;SDS011;34804;49.214;12.276;2023-09-12T03:25:39;16.05;;;12.93;;
48993;SDS011;34804;49.214;12.276;2023-09-12T03:28:07;14.38;;;12.25;;
48993;SDS011;34804;49.214;12.276;2023-09-12T03:30:34;15.88;;;12.25;;
48993;SDS011;34804;49.214;12.276;2023-09-12T03:33:03;15.30;;;12.77;;
48993;SDS011;34804;49.214;12.276;2023-09-12T03:35:31;14.65;;;12.38;;
48993;SDS011;34804;49.214;12.276;2023-09-12T03:37:59;15.30;;;12.60;;
48993;SDS011;34804;49.214;12.276;2023-09-12T03:40:29;16.08;;;13.18;;
48993;SDS011;34804;49.214;12.276;2023-09-12T03:42:57;15.55;;;11.90;;
48993;SDS011;34804;49.214;12.276;2023-09-12T03:45:24;17.58;;;12.20;;
48993;SDS011;34804;49.214;12.276;2023-09-12T03:47:51;19.13;;;12.70;;
48993;SDS011;34804;49.214;12.276;2023-09-12T03:50:18;14.23;;;11.60;;
48993;SDS011;34804;49.214;12.276;2023-09-12T03:52:45;13.02;;;10.70;;
48993;SDS011;34804;49.214;12.276;2023-09-12T03:55:12;14.50;;;11.93;;
48993;SDS011;34804;49.214;12.276;2023-09-12T03:57:39;17.80;;;13.70;;
48993;SDS011;34804;49.214;12.276;2023-09-12T04:00:06;15.75;;;13.13;;
48993;SDS011;34804;49.214;12.276;2023-09-12T04:02:34;18.40;;;12.45;;
48993;SDS011;34804;49.214;12.276;2023-09-12T04:05:01;19.17;;;14.18;;
48993;SDS011;34804;49.214;12.276;2023-09-12T04:07:29;18.77;;;14.63;;
48993;SDS011;34804;49.214;12.276;2023-09-12T04:09:56;19.20;;;15.02;;
48993;SDS011;34804;49.214;12.276;2023-09-12T04:12:23;18.45;;;14.07;;
48993;SDS011;34804;49.214;12.276;2023-09-12T04:14:50;16.42;;;13.50;;
48993;SDS011;34804;49.214;12.276;2023-09-12T04:17:18;14.88;;;11.85;;
48993;SDS011;34804;49.214;12.276;2023-09-12T04:19:44;15.07;;;12.73;;
48993;SDS011;34804;49.214;12.276;2023-09-12T04:22:11;18.33;;;13.57;;
48993;SDS011;34804;49.214;12.276;2023-09-12T04:24:38;19.92;;;14.55;;
48993;SDS011;34804;49.214;12.276;2023-09-12T04:27:05;21.25;;;15.52;;
48993;SDS011;34804;49.214;12.276;2023-09-12T04:29:32;16.67;;;13.50;;
48993;SDS011;34804;49.214;12.276;2023-09-12T04:32:02;17.38;;;13.95;;
48993;SDS011;34804;49.214;12.276;2023-09-12T04:34:29;15.93;;;13.50;;
48993;SDS011;34804;49.214;12.276;2023-09-12T04:36:57;17.83;;;13.98;;
48993;SDS011;34804;49.214;12.276;2023-09-12T04:39:24;17.60;;;13.15;;
48993;SDS011;34804;49.214;12.276;2023-09-12T04:41:51;17.80;;;12.93;;
48993;SDS011;34804;49.214;12.276;2023-09-12T04:44:17;16.45;;;13.05;;
48993;SDS011;34804;49.214;12.276;2023-09-12T04:46:44;16.83;;;12.52;;
48993;SDS011;34804;49.214;12.276;2023-09-12T04:49:12;16.52;;;13.43;;
48993;SDS011;34804;49.214;12.276;2023-09-12T04:51:39;18.95;;;13.55;;
48993;SDS011;34804;49.214;12.276;2023-09-12T04:54:06;16.75;;;13.20;;
48993;SDS011;34804;49.214;12.276;2023-09-12T04:56:33;18.35;;;14.15;;
48993;SDS011;34804;49.214;12.276;2023-09-12T04:59:00;15.35;;;12.35;;
48993;SDS011;34804;49.214;12.276;2023-09-12T05:01:27;17.73;;;13.82;;
48993;SDS011;34804;49.214;12.276;2023-09-12T05:03:54;20.50;;;14.80;;
48993;SDS011;34804;49.214;12.276;2023-09-12T05:06:20;20.13;;;14.82;;
48993;SDS011;34804;49.214;12.276;2023-09-12T05:08:47;19.60;;;14.85;;
48993;SDS011;34804;49.214;12.276;2023-09-12T05:11:14;22.48;;;13.95;;
48993;SDS011;34804;49.214;12.276;2023-09-12T05:13:41;17.33;;;14.30;;
48993;SDS011;34804;49.214;12.276;2023-09-12T05:16:08;16.77;;;12.93;;
48993;SDS011;34804;49.214;12.276;2023-09-12T05:18:35;17.00;;;12.68;;
48993;SDS011;34804;49.214;12.276;2023-09-12T05:21:02;16.58;;;12.70;;
48993;SDS011;34804;49.214;12.276;2023-09-12T05:23:29;17.92;;;13.40;;
48993;SDS011;34804;49.214;12.276;2023-09-12T05:25:55;18.52;;;12.75;;
48993;SDS011;34804;49.214;12.276;2023-09-12T05:28:22;17.75;;;13.10;;
48993;SDS011;34804;49.214;12.276;2023-09-12T05:30:49;17.05;;;13.15;;
48993;SDS011;34804;49.214;12.276;2023-09-12T05:33:17;16.83;;;13.40;;
48993;SDS011;34804;49.214;12.276;2023-09-12T05:35:44;17.88;;;14.25;;
48993;SDS011;34804;49.214;12.276;2023-09-12T05:38:11;16.65;;;13.20;;
48993;SDS011;34804;49.214;12.276;2023-09-12T05:40:38;17.23;;;13.95;;
48993;SDS011;34804;49.214;12.276;2023-09-12T05:43:04;16.73;;;13.75;;
48993;SDS011;34804;49.214;12.276;2023-09-12T05:45:31;17.25;;;13.98;;
48993;SDS011;34804;49.214;12.276;2023-09-12T05:47:59;18.77;;;15.65;;
48993;SDS011;34804;49.214;12.276;2023-09-12T05:50:27;19.83;;;14.65;;
48993;SDS011;34804;49.214;12.276;2023-09-12T05:52:54;20.23;;;14.55;;
48993;SDS011;34804;49.214;12.276;2023-09-12T05:55:20;17.70;;;14.75;;
48993;SDS011;34804;49.214;12.276;2023-09-12T05:57:48;19.95;;;13.98;;
48993;SDS011;34804;49.214;12.276;2023-09-12T06:00:18;19.40;;;14.73;;
48993;SDS011;34804;49.214;12.276;2023-09-12T06:02:46;18.90;;;15.10;;
48993;SDS011;34804;49.214;12.276;2023-09-12T06:05:15;21.00;;;15.07;;
48993;SDS011;34804;49.214;12.276;2023-09-12T06:07:42;20.55;;;15.50;;
48993;SDS011;34804;49.214;12.276;2023-09-12T06:10:09;22.80;;;16.33;;
48993;SDS011;34804;49.214;12.276;2023-09-12T06:12:36;20.35;;;14.07;;
48993;SDS011;34804;49.214;12.276;2023-09-12T06:15:03;19.30;;;14.63;;
48993;SDS011;34804;49.214;12.276;2023-09-12T06:17:31;21.67;;;14.93;;
48993;SDS011;34804;49.214;12.276;2023-09-12T06:19:58;19.98;;;16.25;;
48993;SDS011;34804;49.214;12.276;2023-09-12T06:22:25;25.58;;;15.63;;
48993;SDS011;34804;49.214;12.276;2023-09-12T06:24:52;23.27;;;14.98;;
48993;SDS011;34804;49.214;12.276;2023-09-12T06:27:19;20.30;;;14.43;;
48993;SDS011;34804;49.214;12.276;2023-09-12T06:29:47;26.77;;;14.85;;
48993;SDS011;34804;49.214;12.276;2023-09-12T06:32:15;18.73;;;13.93;;
48993;SDS011;34804;49.214;12.276;2023-09-12T06:34:42;18.58;;;13.82;;
48993;SDS011;34804;49.214;12.276;2023-09-12T06:37:10;19.33;;;13.52;;
48993;SDS011;34804;49.214;12.276;2023-09-12T06:39:37;19.25;;;12.75;;
48993;SDS011;34804;49.214;12.276;2023-09-12T06:42:04;18.30;;;12.55;;
48993;SDS011;34804;49.214;12.276;2023-09-12T06:44:31;19.95;;;14.65;;
48993;SDS011;34804;49.214;12.276;2023-09-12T06:46:59;18.80;;;14.50;;
48993;SDS011;34804;49.214;12.276;2023-09-12T06:49:28;17.17;;;14.05;;
48993;SDS011;34804;49.214;12.276;2023-09-12T06:51:58;20.23;;;13.68;;
48993;SDS011;34804;49.214;12.276;2023-09-12T06:54:25;19.27;;;15.25;;
48993;SDS011;34804;49.214;12.276;2023-09-12T06:56:52;24.17;;;15.15;;
48993;SDS011;34804;49.214;12.276;2023-09-12T06:59:19;18.98;;;14.18;;
48993;SDS011;34804;49.214;12.276;2023-09-12T07:01:46;19.95;;;15.18;;
48993;SDS011;34804;49.214;12.276;2023-09-12T07:04:13;18.38;;;13.68;;
48993;SDS011;34804;49.214;12.276;2023-09-12T07:06:40;15.65;;;13.07;;
48993;SDS011;34804;49.214;12.276;2023-09-12T07:09:06;24.38;;;15.25;;
48993;SDS011;34804;49.214;12.276;2023-09-12T07:11:35;26.27;;;13.50;;
48993;SDS011;34804;49.214;12.276;2023-09-12T07:14:02;21.63;;;15.25;;
48993;SDS011;34804;49.214;12.276;2023-09-12T07:16:31;23.38;;;15.43;;
48993;SDS011;34804;49.214;12.276;2023-09-12T07:18:58;22.98;;;16.23;;
48993;SDS011;34804;49.214;12.276;2023-09-12T07:21:25;23.23;;;16.65;;
48993;SDS011;34804;49.214;12.276;2023-09-12T07:23:52;23.23;;;16.83;;
48993;SDS011;34804;49.214;12.276;2023-09-12T07:26:19;20.77;;;16.13;;
48993;SDS011;34804;49.214;12.276;2023-09-12T07:28:46;22.15;;;16.30;;
48993;SDS011;34804;49.214;12.276;2023-09-12T07:31:13;23.52;;;15.30;;
48993;SDS011;34804;49.214;12.276;2023-09-12T07:33:40;25.02;;;16.80;;
48993;SDS011;34804;49.214;12.276;2023-09-12T07:36:08;33.13;;;17.80;;
48993;SDS011;34804;49.214;12.276;2023-09-12T07:38:35;24.73;;;15.82;;
48993;SDS011;34804;49.214;12.276;2023-09-12T07:41:03;27.33;;;16.05;;
48993;SDS011;34804;49.214;12.276;2023-09-12T07:43:30;31.52;;;17.63;;
48993;SDS011;34804;49.214;12.276;2023-09-12T07:45:57;26.55;;;17.02;;
48993;SDS011;34804;49.214;12.276;2023-09-12T07:48:25;23.88;;;15.75;;
48993;SDS011;34804;49.214;12.276;2023-09-12T07:50:52;22.42;;;15.88;;
48993;SDS011;34804;49.214;12.276;2023-09-12T07:53:18;29.42;;;17.75;;
48993;SDS011;34804;49.214;12.276;2023-09-12T07:55:45;30.65;;;17.30;;
48993;SDS011;34804;49.214;12.276;2023-09-12T07:58:16;24.55;;;15.88;;
48993;SDS011;34804;49.214;12.276;2023-09-12T08:00:47;22.30;;;13.57;;
48993;SDS011;34804;49.214;12.276;2023-09-12T08:03:14;18.42;;;13.93;;
48993;SDS011;34804;49.214;12.276;2023-09-12T08:05:42;27.08;;;15.90;;
48993;SDS011;34804;49.214;12.276;2023-09-12T08:08:09;18.40;;;12.82;;
48993;SDS011;34804;49.214;12.276;2023-09-12T08:10:36;20.73;;;14.80;;
48993;SDS011;34804;49.214;12.276;2023-09-12T08:13:03;21.52;;;14.07;;
48993;SDS011;34804;49.214;12.276;2023-09-12T08:15:30;24.63;;;13.70;;
48993;SDS011;34804;49.214;12.276;2023-09-12T08:17:57;21.38;;;13.13;;
48993;SDS011;34804;49.214;12.276;2023-09-12T08:20:24;25.77;;;14.25;;
48993;SDS011;34804;49.214;12.276;2023-09-12T08:22:51;28.80;;;14.75;;
48993;SDS011;34804;49.214;12.276;2023-09-12T08:25:17;28.52;;;13.80;;
48993;SDS011;34804;49.214;12.276;2023-09-12T08:27:44;27.58;;;13.65;;
48993;SDS011;34804;49.214;12.276;2023-09-12T08:30:12;22.55;;;13.48;;
48993;SDS011;34804;49.214;12.276;2023-09-12T08:32:46;29.80;;;13.77;;
48993;SDS011;34804;49.214;12.276;2023-09-12T08:35:13;25.63;;;13.07;;
48993;SDS011;34804;49.214;12.276;2023-09-12T08:37:41;27.13;;;13.70;;
48993;SDS011;34804;49.214;12.276;2023-09-12T08:40:11;30.85;;;13.63;;
48993;SDS011;34804;49.214;12.276;2023-09-12T08:42:42;18.02;;;12.73;;
48993;SDS011;34804;49.214;12.276;2023-09-12T08:45:14;23.27;;;12.45;;
48993;SDS011;34804;49.214;12.276;2023-09-12T08:47:45;19.25;;;12.43;;
48993;SDS011;34804;49.214;12.276;2023-09-12T08:50:18;24.52;;;12.32;;
48993;SDS011;34804;49.214;12.276;2023-09-12T08:52:48;29.02;;;13.10;;
48993;SDS011;34804;49.214;12.276;2023-09-12T08:55:34;17.05;;;12.73;;
48993;SDS011;34804;49.214;12.276;2023-09-12T08:58:03;20.08;;;12.35;;
48993;SDS011;34804;49.214;12.276;2023-09-12T09:00:31;15.65;;;12.07;;
48993;SDS011;34804;49.214;12.276;2023-09-12T09:02:59;15.55;;;10.95;;
48993;SDS011;34804;49.214;12.276;2023-09-12T09:05:27;16.70;;;11.43;;
48993;SDS011;34804;49.214;12.276;2023-09-12T09:07:55;17.35;;;11.32;;
48993;SDS011;34804;49.214;12.276;2023-09-12T09:10:23;14.88;;;11.13;;
48993;SDS011;34804;49.214;12.276;2023-09-12T09:13:12;14.50;;;10.65;;
48993;SDS011;34804;49.214;12.276;2023-09-12T09:15:39;12.63;;;10.73;;
48993;SDS011;34804;49.214;12.276;2023-09-12T09:18:09;15.00;;;10.13;;
48993;SDS011;34804;49.214;12.276;2023-09-12T09:20:38;13.88;;;11.73;;
48993;SDS011;34804;49.214;12.276;2023-09-12T09:23:08;14.75;;;10.80;;
48993;SDS011;34804;49.214;12.276;2023-09-12T09:25:39;13.40;;;11.05;;
48993;SDS011;34804;49.214;12.276;2023-09-12T09:28:18;11.65;;;10.25;;
48993;SDS011;34804;49.214;12.276;2023-09-12T09:30:48;13.57;;;9.25;;
48993;SDS011;34804;49.214;12.276;2023-09-12T09:33:21;11.15;;;9.75;;
48993;SDS011;34804;49.214;12.276;2023-09-12T09:35:49;10.55;;;9.07;;
48993;SDS011;34804;49.214;12.276;2023-09-12T09:38:19;12.30;;;8.70;;
48993;SDS011;34804;49.214;12.276;2023-09-12T09:40:46;15.40;;;11.25;;
48993;SDS011;34804;49.214;12.276;2023-09-12T09:43:14;12.18;;;9.10;;
48993;SDS011;34804;49.214;12.276;2023-09-12T09:45:48;9.95;;;8.85;;
48993;SDS011;34804;49.214;12.276;2023-09-12T09:48:20;12.20;;;8.55;;
48993;SDS011;34804;49.214;12.276;2023-09-12T09:50:48;11.18;;;8.20;;
48993;SDS011;34804;49.214;12.276;2023-09-12T09:53:15;10.45;;;8.45;;
48993;SDS011;34804;49.214;12.276;2023-09-12T09:55:42;9.70;;;7.95;;
48993;SDS011;34804;49.214;12.276;2023-09-12T09:58:14;11.25;;;7.80;;
48993;SDS011;34804;49.214;12.276;2023-09-12T10:00:44;12.38;;;8.35;;
48993;SDS011;34804;49.214;12.276;2023-09-12T10:03:14;11.07;;;8.05;;
48993;SDS011;34804;49.214;12.276;2023-09-12T10:05:44;13.95;;;8.40;;
48993;SDS011;34804;49.214;12.276;2023-09-12T10:08:12;12.45;;;7.85;;
48993;SDS011;34804;49.214;12.276;2023-09-12T10:10:43;10.10;;;7.88;;
48993;SDS011;34804;49.214;12.276;2023-09-12T10:13:11;11.73;;;8.40;;
48993;SDS011;34804;49.214;12.276;2023-09-12T10:15:40;10.07;;;7.50;;
48993;SDS011;34804;49.214;12.276;2023-09-12T10:18:10;9.52;;;7.60;;
48993;SDS011;34804;49.214;12.276;2023-09-12T10:20:55;8.93;;;7.82;;
48993;SDS011;34804;49.214;12.276;2023-09-12T10:23:34;10.02;;;7.75;;
48993;SDS011;34804;49.214;12.276;2023-09-12T10:26:12;10.35;;;7.65;;
48993;SDS011;34804;49.214;12.276;2023-09-12T10:28:40;10.55;;;7.47;;
48993;SDS011;34804;49.214;12.276;2023-09-12T10:31:09;10.50;;;7.15;;
48993;SDS011;34804;49.214;12.276;2023-09-12T10:33:38;10.65;;;7.47;;
48993;SDS011;34804;49.214;12.276;2023-09-12T10:36:06;10.25;;;7.43;;
48993;SDS011;34804;49.214;12.276;2023-09-12T10:38:42;8.73;;;6.88;;
48993;SDS011;34804;49.214;12.276;2023-09-12T10:41:11;8.65;;;6.72;;
48993;SDS011;34804;49.214;12.276;2023-09-12T10:43:40;8.95;;;6.80;;
48993;SDS011;34804;49.214;12.276;2023-09-12T10:46:08;11.48;;;7.13;;
48993;SDS011;34804;49.214;12.276;2023-09-12T10:48:36;8.30;;;7.13;;
48993;SDS011;34804;49.214;12.276;2023-09-12T10:51:03;7.55;;;6.45;;
48993;SDS011;34804;49.214;12.276;2023-09-12T10:53:31;10.35;;;6.63;;
48993;SDS011;34804;49.214;12.276;2023-09-12T11:01:31;10.13;;;7.03;;
48993;SDS011;34804;49.214;12.276;2023-09-12T11:03:58;8.30;;;6.45;;
48993;SDS011;34804;49.214;12.276;2023-09-12T11:06:49;8.57;;;6.75;;
48993;SDS011;34804;49.214;12.276;2023-09-12T11:09:17;10.27;;;6.85;;
48993;SDS011;34804;49.214;12.276;2023-09-12T11:14:35;10.65;;;6.65;;
48993;SDS011;34804;49.214;12.276;2023-09-12T11:19:44;10.25;;;7.13;;
48993;SDS011;34804;49.214;12.276;2023-09-12T11:22:23;9.20;;;7.50;;
48993;SDS011;34804;49.214;12.276;2023-09-12T11:24:51;9.63;;;7.10;;
48993;SDS011;34804;49.214;12.276;2023-09-12T11:27:19;14.95;;;7.28;;
48993;SDS011;34804;49.214;12.276;2023-09-12T11:29:49;9.25;;;6.82;;
48993;SDS011;34804;49.214;12.276;2023-09-12T11:32:27;9.02;;;7.03;;
48993;SDS011;34804;49.214;12.276;2023-09-12T11:34:57;9.48;;;7.30;;
48993;SDS011;34804;49.214;12.276;2023-09-12T11:37:30;11.73;;;7.55;;
48993;SDS011;34804;49.214;12.276;2023-09-12T11:39:59;9.73;;;7.53;;
48993;SDS011;34804;49.214;12.276;2023-09-12T11:42:26;8.68;;;7.30;;
48993;SDS011;34804;49.214;12.276;2023-09-12T11:44:53;8.65;;;6.82;;
48993;SDS011;34804;49.214;12.276;2023-09-12T11:47:20;8.98;;;7.38;;
48993;SDS011;34804;49.214;12.276;2023-09-12T11:49:48;12.68;;;7.55;;
48993;SDS011;34804;49.214;12.276;2023-09-12T11:52:15;10.15;;;7.35;;
48993;SDS011;34804;49.214;12.276;2023-09-12T11:54:47;9.30;;;7.78;;
48993;SDS011;34804;49.214;12.276;2023-09-12T11:57:15;11.38;;;7.65;;
48993;SDS011;34804;49.214;12.276;2023-09-12T11:59:43;10.85;;;7.53;;
48993;SDS011;34804;49.214;12.276;2023-09-12T12:02:14;10.93;;;7.55;;
48993;SDS011;34804;49.214;12.276;2023-09-12T12:04:41;10.20;;;7.63;;
48993;SDS011;34804;49.214;12.276;2023-09-12T12:07:08;11.90;;;7.85;;
48993;SDS011;34804;49.214;12.276;2023-09-12T12:09:36;9.48;;;7.15;;
48993;SDS011;34804;49.214;12.276;2023-09-12T12:12:12;9.15;;;6.70;;
48993;SDS011;34804;49.214;12.276;2023-09-12T12:14:41;12.80;;;7.45;;
48993;SDS011;34804;49.214;12.276;2023-09-12T12:17:09;10.20;;;7.22;;
48993;SDS011;34804;49.214;12.276;2023-09-12T12:19:37;9.77;;;7.07;;
48993;SDS011;34804;49.214;12.276;2023-09-12T12:22:05;8.65;;;7.68;;
48993;SDS011;34804;49.214;12.276;2023-09-12T12:24:41;11.07;;;7.88;;
48993;SDS011;34804;49.214;12.276;2023-09-12T12:27:08;10.57;;;7.30;;
48993;SDS011;34804;49.214;12.276;2023-09-12T12:29:37;8.15;;;7.28;;
48993;SDS011;34804;49.214;12.276;2023-09-12T12:32:08;9.90;;;7.15;;
48993;SDS011;34804;49.214;12.276;2023-09-12T12:34:36;10.25;;;7.18;;
48993;SDS011;34804;49.214;12.276;2023-09-12T12:37:28;12.43;;;7.72;;
48993;SDS011;34804;49.214;12.276;2023-09-12T12:40:00;11.70;;;7.40;;
48993;SDS011;34804;49.214;12.276;2023-09-12T12:42:35;9.00;;;7.32;;
48993;SDS011;34804;49.214;12.276;2023-09-12T12:45:23;11.57;;;7.80;;
48993;SDS011;34804;49.214;12.276;2023-09-12T12:47:51;11.82;;;7.50;;
48993;SDS011;34804;49.214;12.276;2023-09-12T12:50:23;11.77;;;7.20;;
48993;SDS011;34804;49.214;12.276;2023-09-12T12:52:50;10.40;;;6.78;;
48993;SDS011;34804;49.214;12.276;2023-09-12T12:55:17;11.13;;;7.30;;
48993;SDS011;34804;49.214;12.276;2023-09-12T12:57:47;10.02;;;7.07;;
48993;SDS011;34804;49.214;12.276;2023-09-12T13:00:15;9.63;;;7.30;;
48993;SDS011;34804;49.214;12.276;2023-09-12T13:02:44;11.88;;;7.13;;
48993;SDS011;34804;49.214;12.276;2023-09-12T13:05:24;9.27;;;7.07;;
48993;SDS011;34804;49.214;12.276;2023-09-12T13:07:53;10.93;;;6.55;;
48993;SDS011;34804;49.214;12.276;2023-09-12T13:10:20;9.80;;;7.30;;
48993;SDS011;34804;49.214;12.276;2023-09-12T13:12:48;8.55;;;7.35;;
48993;SDS011;34804;49.214;12.276;2023-09-12T13:15:16;10.45;;;7.30;;
48993;SDS011;34804;49.214;12.276;2023-09-12T13:17:44;10.93;;;7.85;;
48993;SDS011;34804;49.214;12.276;2023-09-12T13:20:11;11.13;;;7.38;;
48993;SDS011;34804;49.214;12.276;2023-09-12T13:22:38;7.68;;;6.88;;
48993;SDS011;34804;49.214;12.276;2023-09-12T13:25:05;9.45;;;7.25;;
48993;SDS011;34804;49.214;12.276;2023-09-12T13:27:32;11.43;;;7.65;;
48993;SDS011;34804;49.214;12.276;2023-09-12T13:30:00;9.80;;;7.43;;
48993;SDS011;34804;49.214;12.276;2023-09-12T13:32:27;14.27;;;7.95;;
48993;SDS011;34804;49.214;12.276;2023-09-12T13:34:54;11.35;;;7.88;;
48993;SDS011;34804;49.214;12.276;2023-09-12T13:37:21;8.77;;;7.75;;
48993;SDS011;34804;49.214;12.276;2023-09-12T13:39:48;9.82;;;7.85;;
48993;SDS011;34804;49.214;12.276;2023-09-12T13:42:16;10.48;;;7.78;;
48993;SDS011;34804;49.214;12.276;2023-09-12T13:44:47;11.40;;;8.00;;
48993;SDS011;34804;49.214;12.276;2023-09-12T13:47:15;9.32;;;7.22;;
48993;SDS011;34804;49.214;12.276;2023-09-12T13:49:49;10.07;;;7.80;;
48993;SDS011;34804;49.214;12.276;2023-09-12T13:52:20;9.32;;;7.57;;
48993;SDS011;34804;49.214;12.276;2023-09-12T13:54:47;11.20;;;7.95;;
48993;SDS011;34804;49.214;12.276;2023-09-12T13:57:15;11.02;;;8.00;;
48993;SDS011;34804;49.214;12.276;2023-09-12T13:59:42;8.85;;;7.47;;
48993;SDS011;34804;49.214;12.276;2023-09-12T14:02:12;11.95;;;7.78;;
48993;SDS011;34804;49.214;12.276;2023-09-12T14:04:40;10.93;;;7.20;;
48993;SDS011;34804;49.214;12.276;2023-09-12T14:07:08;9.13;;;7.38;;
48993;SDS011;34804;49.214;12.276;2023-09-12T14:09:35;8.73;;;7.63;;
48993;SDS011;34804;49.214;12.276;2023-09-12T14:12:04;10.32;;;7.25;;
48993;SDS011;34804;49.214;12.276;2023-09-12T14:14:44;9.05;;;6.95;;
48993;SDS011;34804;49.214;12.276;2023-09-12T14:17:26;14.93;;;7.57;;
48993;SDS011;34804;49.214;12.276;2023-09-12T14:19:55;9.50;;;7.20;;
48993;SDS011;34804;49.214;12.276;2023-09-12T14:22:22;10.00;;;7.85;;
48993;SDS011;34804;49.214;12.276;2023-09-12T14:24:51;12.60;;;7.05;;
48993;SDS011;34804;49.214;12.276;2023-09-12T14:27:18;9.77;;;7.22;;
48993;SDS011;34804;49.214;12.276;2023-09-12T14:29:53;8.50;;;7.55;;
48993;SDS011;34804;49.214;12.276;2023-09-12T14:32:19;10.23;;;6.88;;
48993;SDS011;34804;49.214;12.276;2023-09-12T14:34:47;9.02;;;7.43;;
48993;SDS011;34804;49.214;12.276;2023-09-12T14:37:13;9.13;;;7.75;;
48993;SDS011;34804;49.214;12.276;2023-09-12T14:39:40;10.85;;;7.60;;